Time;durP1;ratioP1;P1;durP2;ratioP2;P2;SDS_P1;SDS_P2;PMS_P1;PMS_P2;Temp;Humidity;BMP_temperature;BMP_pressure;BME280_temperature;BME280_humidity;BME280_pressure;Samples;Min_cycle;Max_cycle;Signal;HPM_P1;HPM_P2
2021/12/30 00:02:29;;;;;;;0.30;0.30;;;;;;;4.94;100.00;96214.50;5047205;28;20048;-64
2021/12/30 00:04:55;;;;;;;0.30;0.30;;;;;;;4.99;100.00;96216.97;5064872;28;20050;-64
2021/12/30 00:07:22;;;;;;;0.30;0.30;;;;;;;4.97;100.00;96211.03;5064788;28;20059;-63
2021/12/30 00:09:49;;;;;;;9.50;1.75;;;;;;;4.97;100.00;96230.25;5064694;28;20048;-63
2021/12/30 00:12:16;;;;;;;0.50;0.50;;;;;;;4.78;100.00;96213.69;5064471;28;20048;-69
2021/12/30 00:14:42;;;;;;;0.30;0.30;;;;;;;4.89;100.00;96234.75;5064402;28;20055;-68
2021/12/30 00:17:09;;;;;;;0.30;0.30;;;;;;;4.91;100.00;96231.66;5064496;28;20048;-65
2021/12/30 00:19:36;;;;;;;0.30;0.30;;;;;;;4.79;100.00;96226.28;5064639;28;20565;-64
2021/12/30 00:22:03;;;;;;;0.30;0.30;;;;;;;4.74;100.00;96223.78;5064079;28;20056;-69
2021/12/30 00:24:29;;;;;;;0.30;0.30;;;;;;;4.74;100.00;96243.78;5064537;28;20057;-68
2021/12/30 00:26:56;;;;;;;5.25;3.70;;;;;;;4.75;100.00;96241.81;5064292;28;20091;-68
2021/12/30 00:29:24;;;;;;;0.30;0.30;;;;;;;4.74;100.00;96243.00;5064087;28;20048;-67
2021/12/30 00:31:51;;;;;;;0.30;0.30;;;;;;;4.80;100.00;96241.56;5046269;28;20143;-64
2021/12/30 00:34:18;;;;;;;0.30;0.30;;;;;;;4.43;100.00;96195.19;5064490;28;20044;-63
2021/12/30 00:36:45;;;;;;;0.30;0.30;;;;;;;4.75;100.00;96250.06;5046455;28;20036;-62
2021/12/30 00:39:11;;;;;;;0.30;0.30;;;;;;;4.03;100.00;96152.59;5064392;28;20064;-64
2021/12/30 00:41:38;;;;;;;0.30;0.30;;;;;;;3.98;100.00;96150.88;5063849;28;20057;-69
2021/12/30 00:44:05;;;;;;;0.30;0.30;;;;;;;4.53;100.00;96244.03;5064338;28;20048;-66
2021/12/30 00:46:32;;;;;;;0.30;0.30;;;;;;;4.49;100.00;96236.81;5063807;28;20555;-62
2021/12/30 00:48:59;;;;;;;0.30;0.30;;;;;;;4.59;100.00;96248.09;5063916;28;20059;-68
2021/12/30 00:51:25;;;;;;;0.30;0.30;;;;;;;4.22;100.00;96197.34;5063930;28;20063;-64
2021/12/30 00:53:52;;;;;;;0.30;0.30;;;;;;;4.03;100.00;96175.28;5045968;28;20053;-63
2021/12/30 00:56:19;;;;;;;0.30;0.30;;;;;;;4.47;100.00;96252.84;5064044;28;20056;-66
2021/12/30 00:58:46;;;;;;;0.38;0.38;;;;;;;4.41;100.00;96257.00;5046123;28;20056;-62
2021/12/30 01:01:12;;;;;;;0.50;0.50;;;;;;;4.44;100.00;96273.53;5045796;28;20053;-63
2021/12/30 01:03:40;;;;;;;0.47;0.47;;;;;;;3.96;100.00;96191.53;5064441;28;20416;-64
2021/12/30 01:06:07;;;;;;;0.30;0.30;;;;;;;4.34;100.00;96240.34;5063232;28;20053;-67
2021/12/30 01:08:33;;;;;;;0.30;0.30;;;;;;;4.33;100.00;96244.25;5063635;28;20052;-62
2021/12/30 01:11:05;;;;;;;0.50;0.50;;;;;;;3.30;100.00;96086.38;5045624;28;20052;-62
2021/12/30 01:13:32;;;;;;;0.38;0.38;;;;;;;4.16;100.00;96222.59;5063740;28;20048;-67
2021/12/30 01:16:01;;;;;;;0.30;0.30;;;;;;;4.44;100.00;96251.59;5055574;28;20049;-63
2021/12/30 01:18:54;;;;;;;0.30;0.30;;;;;;;4.42;100.00;96256.66;5043509;28;20528;-67
2021/12/30 01:21:24;;;;;;;0.30;0.30;;;;;;;4.32;100.00;96257.16;5043887;28;20053;-62
2021/12/30 01:23:52;;;;;;;0.30;0.30;;;;;;;4.39;100.00;96260.06;5026130;28;20060;-63
2021/12/30 01:26:19;;;;;;;0.30;0.30;;;;;;;4.33;100.00;96255.22;5043579;28;20343;-66
2021/12/30 01:28:47;;;;;;;0.30;0.30;;;;;;;4.41;100.00;96257.00;5043721;28;20052;-68
2021/12/30 01:31:16;;;;;;;0.30;0.30;;;;;;;4.33;100.00;96242.28;5043546;28;20114;-64
2021/12/30 01:33:44;;;;;;;0.30;0.30;;;;;;;4.38;100.00;96272.19;5043493;28;20067;-67
2021/12/30 01:36:11;;;;;;;1.17;1.17;;;;;;;4.36;100.00;96258.03;5025346;28;20442;-66
2021/12/30 01:38:38;;;;;;;0.30;0.30;;;;;;;4.43;100.00;96260.97;5043631;28;20052;-64
2021/12/30 01:41:07;;;;;;;0.75;0.75;;;;;;;4.31;100.00;96241.84;5043291;28;20049;-67
2021/12/30 01:43:35;;;;;;;0.30;0.30;;;;;;;4.05;100.00;96205.88;5026023;28;20048;-67
2021/12/30 01:46:07;;;;;;;0.30;0.30;;;;;;;4.46;100.00;96253.97;5044233;28;20049;-68
2021/12/30 01:48:35;;;;;;;0.30;0.30;;;;;;;2.12;100.00;95899.28;5043653;28;20063;-62
2021/12/30 01:51:03;;;;;;;0.52;0.52;;;;;;;4.43;100.00;96260.16;5025258;28;20057;-66
2021/12/30 01:53:30;;;;;;;0.30;0.30;;;;;;;3.86;100.00;96177.53;5043541;28;20061;-65
2021/12/30 01:55:57;;;;;;;0.30;0.30;;;;;;;4.42;100.00;96267.63;5043093;28;20516;-65
2021/12/30 01:58:24;;;;;;;0.30;0.30;;;;;;;4.45;100.00;96271.59;5043499;28;20053;-62
2021/12/30 02:00:51;;;;;;;0.30;0.30;;;;;;;4.49;100.00;96270.53;5025393;28;20060;-67
2021/12/30 02:03:20;;;;;;;0.30;0.30;;;;;;;4.53;100.00;96276.13;5025766;28;20124;-62
2021/12/30 02:05:48;;;;;;;0.30;0.30;;;;;;;4.60;100.00;96268.88;5042978;28;20072;-66
2021/12/30 02:08:17;;;;;;;0.30;0.30;;;;;;;4.62;100.00;96269.34;5043150;28;20567;-63
2021/12/30 02:10:47;;;;;;;0.30;0.30;;;;;;;4.68;100.00;96274.56;5044270;28;20060;-63
2021/12/30 02:13:16;;;;;;;0.30;0.30;;;;;;;4.63;100.00;96276.41;5047174;28;20053;-64
2021/12/30 02:15:42;;;;;;;0.30;0.30;;;;;;;4.65;100.00;96296.06;5051915;28;20537;-67
2021/12/30 02:18:09;;;;;;;0.30;0.30;;;;;;;4.28;100.00;96239.78;5066726;28;20052;-67
2021/12/30 02:20:43;;;;;;;0.30;0.30;;;;;;;4.58;100.00;96281.38;5066633;28;20048;-66
2021/12/30 02:23:10;;;;;;;0.30;0.30;;;;;;;4.61;100.00;96284.22;5067015;28;20060;-63
2021/12/30 02:25:37;;;;;;;0.30;0.30;;;;;;;4.64;100.00;96282.69;5049074;28;20082;-67
2021/12/30 02:28:12;;;;;;;0.30;0.30;;;;;;;4.16;100.00;96217.94;5049295;28;20048;-63
2021/12/30 02:30:40;;;;;;;2.55;1.30;;;;;;;4.47;100.00;96267.34;5067054;28;20064;-65
2021/12/30 02:33:07;;;;;;;0.30;0.30;;;;;;;4.71;100.00;96307.56;5066416;28;20057;-63
2021/12/30 02:35:34;;;;;;;0.30;0.30;;;;;;;4.61;100.00;96295.19;5066447;28;20052;-67
2021/12/30 02:38:02;;;;;;;0.30;0.30;;;;;;;4.62;100.00;96301.44;5066526;28;20063;-66
2021/12/30 02:40:35;;;;;;;0.30;0.30;;;;;;;4.46;100.00;96282.22;5066513;28;20053;-64
2021/12/30 02:43:04;;;;;;;0.30;0.30;;;;;;;4.55;100.00;96296.56;5066681;28;20311;-67
2021/12/30 02:45:31;;;;;;;0.30;0.30;;;;;;;4.55;100.00;96296.56;5048996;28;20264;-63
2021/12/30 02:47:58;;;;;;;0.22;0.22;;;;;;;4.51;100.00;96300.34;5066959;28;20130;-67
2021/12/30 02:50:25;;;;;;;0.45;0.45;;;;;;;3.96;100.00;96240.84;5047743;28;20055;-63
2021/12/30 02:52:52;;;;;;;0.30;0.30;;;;;;;4.44;100.00;96311.13;5048192;28;20538;-67
2021/12/30 02:55:18;;;;;;;0.40;0.40;;;;;;;4.41;100.00;96304.38;5066629;28;20059;-67
2021/12/30 02:57:45;;;;;;;0.30;0.30;;;;;;;4.29;100.00;96293.47;5066425;28;20052;-67
2021/12/30 03:00:12;;;;;;;0.30;0.30;;;;;;;4.01;100.00;96243.34;5065955;28;20063;-67
2021/12/30 03:02:40;;;;;;;0.30;0.30;;;;;;;4.03;100.00;96254.72;5048754;28;20056;-66
2021/12/30 03:05:08;;;;;;;0.30;0.30;;;;;;;4.39;100.00;96325.84;5066182;28;20056;-67
2021/12/30 03:07:36;;;;;;;0.30;0.30;;;;;;;0.96;100.00;95764.69;5047943;28;20052;-63
2021/12/30 03:10:04;;;;;;;0.30;0.30;;;;;;;4.45;100.00;96323.69;5065815;28;20044;-62
2021/12/30 03:12:30;;;;;;;0.30;0.30;;;;;;;4.37;100.00;96330.91;5065631;28;20063;-66
2021/12/30 03:14:59;;;;;;;0.30;0.30;;;;;;;4.38;100.00;96329.75;5065885;28;20052;-67
2021/12/30 03:17:26;;;;;;;0.30;0.30;;;;;;;4.37;100.00;96336.41;5046641;28;20045;-66
2021/12/30 03:19:55;;;;;;;0.30;0.30;;;;;;;4.36;100.00;96340.28;5046383;28;20774;-63
2021/12/30 03:22:23;;;;;;;0.30;0.30;;;;;;;4.26;100.00;96332.56;5027659;28;20052;-67
2021/12/30 03:24:49;;;;;;;0.30;0.30;;;;;;;4.17;100.00;96351.06;5028224;28;20057;-66
2021/12/30 03:27:16;;;;;;;0.30;0.30;;;;;;;4.10;100.00;96323.47;5045202;28;20049;-66
2021/12/30 03:29:43;;;;;;;0.30;0.30;;;;;;;4.21;100.00;96343.75;5027748;28;20435;-66
2021/12/30 03:32:10;;;;;;;0.30;0.30;;;;;;;4.28;100.00;96354.91;5027225;28;20056;-67
2021/12/30 03:34:37;;;;;;;0.30;0.30;;;;;;;4.34;100.00;96350.81;5045599;28;20049;-67
2021/12/30 03:37:03;;;;;;;0.30;0.30;;;;;;;4.24;100.00;96354.03;5045644;28;20049;-62
2021/12/30 03:39:30;;;;;;;0.30;0.30;;;;;;;4.24;100.00;96362.25;5046145;28;20063;-67
2021/12/30 03:41:57;;;;;;;0.30;0.30;;;;;;;4.25;100.00;96369.31;5045344;28;20071;-62
2021/12/30 03:44:24;;;;;;;0.30;0.30;;;;;;;4.19;100.00;96359.72;5045411;28;20079;-67
2021/12/30 03:46:50;;;;;;;0.30;0.30;;;;;;;4.23;100.00;96365.31;5045224;28;20048;-63
2021/12/30 03:49:17;;;;;;;0.30;0.30;;;;;;;4.18;100.00;96365.56;5045026;28;20516;-67
2021/12/30 03:51:45;;;;;;;0.30;0.30;;;;;;;3.69;100.00;96296.38;5043323;28;20057;-63
2021/12/30 03:54:11;;;;;;;0.30;0.30;;;;;;;3.04;100.00;96207.13;5045592;28;20052;-66
2021/12/30 03:56:38;;;;;;;0.50;0.50;;;;;;;4.09;100.00;96373.94;5045167;28;20447;-66
2021/12/30 03:59:05;;;;;;;11.25;1.85;;;;;;;4.07;100.00;96378.94;5027277;28;20052;-63
2021/12/30 04:01:32;;;;;;;0.30;0.30;;;;;;;4.10;100.00;96356.34;5044771;28;20057;-67
2021/12/30 04:03:59;;;;;;;4.32;3.53;;;;;;;4.20;100.00;96380.53;5045297;28;20515;-65
2021/12/30 04:06:27;;;;;;;0.30;0.30;;;;;;;4.24;100.00;96384.16;5044590;28;20057;-64
2021/12/30 04:08:57;;;;;;;0.30;0.30;;;;;;;4.23;100.00;96381.78;5026536;28;20049;-67
2021/12/30 04:11:26;;;;;;;0.30;0.30;;;;;;;4.30;100.00;96393.75;5044701;28;20063;-68
2021/12/30 04:13:54;;;;;;;0.30;0.30;;;;;;;4.21;100.00;96395.81;5026849;28;20049;-67
2021/12/30 04:16:20;;;;;;;1.90;1.85;;;;;;;4.08;100.00;96394.25;5054334;28;20080;-64
2021/12/30 04:18:48;;;;;;;0.30;0.30;;;;;;;4.28;100.00;96411.69;5064708;28;20048;-63
2021/12/30 04:21:17;;;;;;;0.45;0.45;;;;;;;4.22;100.00;96413.84;5064530;28;20417;-63
2021/12/30 04:23:44;;;;;;;0.30;0.30;;;;;;;4.19;100.00;96420.03;5064318;28;20056;-67
2021/12/30 04:26:12;;;;;;;0.30;0.30;;;;;;;4.12;100.00;96413.53;5064536;28;20056;-67
2021/12/30 04:28:39;;;;;;;0.30;0.30;;;;;;;4.15;100.00;96424.63;5046588;28;20458;-63
2021/12/30 04:31:06;;;;;;;0.30;0.30;;;;;;;4.22;100.00;96424.81;5065138;28;20059;-63
2021/12/30 04:33:33;;;;;;;9.98;1.42;;;;;;;3.67;100.00;96364.34;5046425;28;20062;-68
2021/12/30 04:36:00;;;;;;;0.40;0.40;;;;;;;4.13;100.00;96424.16;5063318;28;20055;-66
2021/12/30 04:38:29;;;;;;;2.47;2.30;;;;;;;4.06;100.00;96437.63;5064294;28;20570;-67
2021/12/30 04:40:56;;;;;;;0.30;0.30;;;;;;;4.02;100.00;96436.72;5046001;28;20056;-67
2021/12/30 04:43:23;;;;;;;0.30;0.30;;;;;;;4.09;100.00;96447.91;5064182;28;20475;-67
2021/12/30 04:45:51;;;;;;;0.30;0.30;;;;;;;4.11;100.00;96450.31;5064222;28;20530;-67
2021/12/30 04:48:19;;;;;;;0.30;0.30;;;;;;;4.13;100.00;96448.81;5064328;28;20052;-67
2021/12/30 04:50:46;;;;;;;0.88;0.88;;;;;;;1.54;100.00;96039.75;5064034;28;20051;-65
2021/12/30 04:53:15;;;;;;;0.30;0.30;;;;;;;4.26;100.00;96458.63;5063898;28;20518;-66
2021/12/30 04:55:43;;;;;;;0.30;0.30;;;;;;;4.19;100.00;96465.81;5064102;28;20052;-63
2021/12/30 04:58:10;;;;;;;3.22;2.15;;;;;;;4.31;100.00;96466.63;5064173;28;20053;-63
2021/12/30 05:00:36;;;;;;;0.30;0.30;;;;;;;4.37;100.00;96470.72;5064213;28;20049;-63
2021/12/30 05:05:38;;;;;;;0.30;0.30;;;;;;;4.24;100.00;96477.34;5064005;28;20063;-68
2021/12/30 05:08:06;;;;;;;0.70;0.70;;;;;;;4.32;100.00;96487.41;5063718;28;20053;-63
2021/12/30 05:10:33;;;;;;;0.65;0.65;;;;;;;4.18;100.00;96456.81;5063723;28;20048;-63
2021/12/30 05:13:01;;;;;;;0.30;0.30;;;;;;;4.39;100.00;96493.09;5045685;28;20450;-67
2021/12/30 05:15:28;;;;;;;2.47;2.10;;;;;;;4.38;100.00;96494.25;5061287;28;20056;-63
2021/12/30 05:17:55;;;;;;;0.30;0.30;;;;;;;4.49;100.00;96500.88;5043560;28;20538;-64
2021/12/30 05:20:22;;;;;;;0.30;0.30;;;;;;;4.55;100.00;96504.97;5043388;28;20057;-63
2021/12/30 05:22:49;;;;;;;1.25;1.25;;;;;;;4.55;100.00;96499.47;5043711;28;20044;-68
2021/12/30 05:25:18;;;;;;;0.32;0.32;;;;;;;4.49;100.00;96517.31;5043574;28;20045;-64
2021/12/30 05:27:47;;;;;;;0.30;0.30;;;;;;;4.56;100.00;96517.56;5043904;28;20822;-63
2021/12/30 05:30:14;;;;;;;0.30;0.30;;;;;;;4.51;100.00;96527.94;5043363;28;20060;-68
2021/12/30 05:32:41;;;;;;;0.93;0.93;;;;;;;4.53;100.00;96540.19;5043744;28;20065;-63
2021/12/30 05:35:10;;;;;;;0.30;0.30;;;;;;;4.12;100.00;96485.59;5025291;28;20461;-67
2021/12/30 05:37:38;;;;;;;0.30;0.30;;;;;;;4.36;100.00;96534.91;5043267;28;20052;-67
2021/12/30 05:40:06;;;;;;;0.50;0.50;;;;;;;2.94;100.00;96318.94;5043435;28;20443;-67
2021/12/30 05:42:33;;;;;;;0.30;0.30;;;;;;;4.39;100.00;96561.63;5025740;28;20063;-64
2021/12/30 05:45:00;;;;;;;2.85;2.35;;;;;;;4.06;100.00;96508.06;5043598;28;20057;-68
2021/12/30 05:47:28;;;;;;;0.30;0.30;;;;;;;4.38;100.00;96568.28;5047710;28;20059;-68
2021/12/30 05:49:55;;;;;;;0.30;0.30;;;;;;;4.38;100.00;96571.00;5046404;28;20049;-67
2021/12/30 05:52:21;;;;;;;0.30;0.30;;;;;;;4.33;100.00;96552.03;5046926;28;20489;-64
2021/12/30 05:54:48;;;;;;;0.30;0.30;;;;;;;4.47;99.93;96563.47;5061208;28;20056;-67
2021/12/30 05:57:18;;;;;;;0.30;0.30;;;;;;;4.35;98.90;96566.22;5049690;28;20170;-63
2021/12/30 05:59:45;;;;;;;1.20;1.20;;;;;;;4.26;99.61;96546.34;5066953;28;20570;-67
2021/12/30 06:02:11;;;;;;;0.40;0.40;;;;;;;4.33;99.68;96584.94;5067337;28;20056;-68
2021/12/30 06:04:38;;;;;;;2.78;2.42;;;;;;;4.27;100.00;96586.31;5067252;28;20052;-67
2021/12/30 06:07:05;;;;;;;0.30;0.30;;;;;;;4.21;99.79;96604.13;5067173;28;20048;-63
2021/12/30 06:09:32;;;;;;;0.30;0.30;;;;;;;3.55;100.00;96504.00;5066437;28;20055;-63
2021/12/30 06:11:58;;;;;;;0.30;0.30;;;;;;;3.10;100.00;96456.63;5048913;28;20052;-63
2021/12/30 06:14:25;;;;;;;0.30;0.30;;;;;;;4.07;100.00;96619.28;5067119;28;20056;-67
2021/12/30 06:16:52;;;;;;;0.30;0.30;;;;;;;4.15;100.00;96619.19;5049116;28;20440;-67
2021/12/30 06:19:18;;;;;;;0.77;0.77;;;;;;;3.21;100.00;96470.72;5049121;28;20172;-68
2021/12/30 06:21:46;;;;;;;0.30;0.30;;;;;;;4.24;100.00;96630.03;5067219;28;20060;-67
2021/12/30 06:24:13;;;;;;;0.30;0.30;;;;;;;4.25;100.00;96640.66;5067296;28;20044;-67
2021/12/30 06:26:39;;;;;;;0.30;0.30;;;;;;;4.44;100.00;96640.94;5048790;28;20125;-68
2021/12/30 06:29:06;;;;;;;0.30;0.30;;;;;;;4.09;100.00;96573.97;5048538;28;20048;-67
2021/12/30 06:31:33;;;;;;;0.82;0.82;;;;;;;4.55;100.00;96664.03;5066449;28;20056;-68
2021/12/30 06:34:00;;;;;;;0.30;0.30;;;;;;;4.41;100.00;96636.13;5066912;28;20053;-64
2021/12/30 06:36:27;;;;;;;0.30;0.30;;;;;;;4.24;100.00;96625.38;5048480;28;21028;-67
2021/12/30 06:38:54;;;;;;;0.50;0.50;;;;;;;4.59;100.00;96675.94;5066569;28;20053;-64
2021/12/30 06:41:20;;;;;;;0.40;0.40;;;;;;;4.15;100.00;96610.97;5040310;28;20048;-64
2021/12/30 06:43:47;;;;;;;2.08;1.85;;;;;;;3.86;100.00;96559.06;5036867;28;20138;-69
2021/12/30 06:46:15;;;;;;;0.20;0.20;;;;;;;4.40;99.87;96656.47;5055172;28;20067;-75
2021/12/30 06:48:44;;;;;;;0.40;0.40;;;;;;;4.74;98.67;96709.31;5055085;28;20056;-69
2021/12/30 06:51:18;;;;;;;0.30;0.30;;;;;;;4.79;98.30;96706.34;5060724;28;20572;-73
2021/12/30 06:53:46;;;;;;;0.30;0.30;;;;;;;4.77;96.61;96720.41;5047412;28;20056;-68
2021/12/30 06:56:13;;;;;;;0.40;0.40;;;;;;;4.58;98.00;96712.72;5041001;28;20055;-70
2021/12/30 06:58:41;;;;;;;9.07;2.58;;;;;;;4.53;98.23;96714.88;5058083;28;20098;-68
2021/12/30 07:01:08;;;;;;;0.30;0.30;;;;;;;3.93;99.83;96641.50;5055345;28;20060;-73
2021/12/30 07:03:35;;;;;;;0.30;0.30;;;;;;;4.24;99.55;96745.97;5056092;28;20048;-67
2021/12/30 07:06:02;;;;;;;0.30;0.30;;;;;;;3.97;100.00;96677.22;5054240;28;20056;-63
2021/12/30 07:08:29;;;;;;;0.50;0.50;;;;;;;4.23;100.00;96716.97;5052459;28;20052;-65
2021/12/30 07:10:56;;;;;;;0.30;0.30;;;;;;;3.42;100.00;96603.63;5053329;28;20569;-63
2021/12/30 07:13:22;;;;;;;0.30;0.30;;;;;;;4.33;100.00;96730.25;5052393;28;20131;-66
2021/12/30 07:15:49;;;;;;;0.85;0.85;;;;;;;4.02;100.00;96699.75;5050791;28;20057;-60
2021/12/30 07:18:16;;;;;;;4.53;2.22;;;;;;;4.10;100.00;96706.28;5052010;28;20563;-65
2021/12/30 07:20:43;;;;;;;0.30;0.30;;;;;;;4.30;100.00;96772.03;5054898;28;20061;-68
2021/12/30 07:23:10;;;;;;;3.40;2.78;;;;;;;3.37;100.00;96579.19;5053681;28;20138;-68
2021/12/30 07:25:36;;;;;;;1.90;1.85;;;;;;;4.44;100.00;96745.13;5053925;28;20049;-62
2021/12/30 07:28:04;;;;;;;0.63;0.63;;;;;;;4.69;100.00;96756.97;5051968;28;20082;-61
2021/12/30 07:30:30;;;;;;;0.73;0.73;;;;;;;4.48;100.00;96723.31;5054746;28;20491;-63
2021/12/30 07:32:58;;;;;;;11.48;2.05;;;;;;;3.80;100.00;96615.22;5056560;28;20458;-64
2021/12/30 07:35:26;;;;;;;0.30;0.30;;;;;;;4.99;99.17;96791.34;5049247;28;20059;-68
2021/12/30 07:37:53;;;;;;;0.38;0.38;;;;;;;4.80;100.00;96735.38;5046227;28;20056;-63
2021/12/30 07:40:20;;;;;;;0.88;0.68;;;;;;;4.26;99.70;96623.09;5052994;28;20049;-65
2021/12/30 07:42:47;;;;;;;0.52;0.45;;;;;;;5.35;100.00;96774.09;5052538;28;20048;-64
2021/12/30 07:45:14;;;;;;;0.95;0.95;;;;;;;4.42;99.71;96642.41;5035775;28;20041;-64
2021/12/30 07:47:41;;;;;;;0.30;0.30;;;;;;;4.53;98.91;96692.94;5055336;28;20577;-65
2021/12/30 07:50:09;;;;;;;0.30;0.30;;;;;;;5.01;98.59;96752.56;5048523;28;20087;-67
2021/12/30 07:52:37;;;;;;;0.30;0.30;;;;;;;4.32;98.06;96693.00;5053087;28;20053;-69
2021/12/30 07:55:06;;;;;;;0.85;0.85;;;;;;;5.13;97.90;96794.56;5036150;28;20459;-65
2021/12/30 07:57:33;;;;;;;0.30;0.30;;;;;;;4.76;98.70;96745.44;5046792;28;20055;-65
2021/12/30 08:00:00;;;;;;;0.50;0.50;;;;;;;4.90;100.00;96756.91;5043025;28;20052;-65
2021/12/30 08:02:26;;;;;;;0.30;0.30;;;;;;;4.51;100.00;96707.00;5061104;28;20044;-66
2021/12/30 08:04:53;;;;;;;0.40;0.40;;;;;;;5.21;98.88;96812.06;5053505;28;20067;-64
2021/12/30 08:07:22;;;;;;;0.32;0.32;;;;;;;5.21;98.62;96812.06;5052222;28;20048;-64
2021/12/30 08:09:49;;;;;;;0.30;0.30;;;;;;;5.31;99.57;96806.91;5033364;28;20051;-67
2021/12/30 08:12:17;;;;;;;0.60;0.60;;;;;;;5.38;100.00;96814.59;5040212;28;20092;-67
2021/12/30 08:14:43;;;;;;;0.50;0.50;;;;;;;5.09;100.00;96792.84;5055275;28;20044;-63
2021/12/30 08:17:10;;;;;;;0.60;0.60;;;;;;;5.47;100.00;96820.78;5049940;28;20143;-64
2021/12/30 08:19:37;;;;;;;8.52;3.85;;;;;;;4.77;99.59;96730.59;5035611;28;20056;-64
2021/12/30 08:22:04;;;;;;;0.40;0.40;;;;;;;4.74;100.00;96736.75;5053312;28;20052;-69
2021/12/30 08:24:31;;;;;;;0.45;0.45;;;;;;;5.60;100.00;96836.13;5048188;28;20594;-68
2021/12/30 08:27:12;;;;;;;0.60;0.60;;;;;;;5.71;100.00;96837.25;5050984;28;20139;-67
2021/12/30 08:29:39;;;;;;;1.00;0.98;;;;;;;5.88;99.94;96828.81;5052322;28;20045;-66
2021/12/30 08:32:08;;;;;;;0.65;0.65;;;;;;;6.09;100.00;96832.22;5061219;28;20051;-65
2021/12/30 08:34:35;;;;;;;2.65;1.33;;;;;;;6.06;98.32;96841.16;5033746;28;20084;-66
2021/12/30 08:37:02;;;;;;;0.45;0.45;;;;;;;5.33;98.77;96724.19;5053813;28;20048;-64
2021/12/30 08:39:29;;;;;;;0.30;0.30;;;;;;;5.69;98.11;96754.38;5053214;28;20049;-63
2021/12/30 08:41:58;;;;;;;5.25;3.13;;;;;;;5.66;96.97;96764.09;5046801;28;20504;-64
2021/12/30 08:44:26;;;;;;;0.40;0.40;;;;;;;6.21;96.39;96854.22;5040964;28;20128;-67
2021/12/30 08:46:53;;;;;;;1.25;1.25;;;;;;;6.24;98.26;96850.75;5055496;28;20049;-65
2021/12/30 08:49:20;;;;;;;0.40;0.40;;;;;;;5.92;97.76;96799.50;5054860;28;20728;-66
2021/12/30 08:51:48;;;;;;;0.38;0.38;;;;;;;6.34;99.84;96852.22;5050423;28;20056;-68
2021/12/30 08:54:15;;;;;;;2.67;1.58;;;;;;;6.47;96.82;96851.84;5055704;28;20049;-63
2021/12/30 08:56:42;;;;;;;0.40;0.40;;;;;;;5.65;97.51;96724.06;5050942;28;20057;-65
2021/12/30 08:59:09;;;;;;;0.40;0.40;;;;;;;6.47;97.28;96846.34;5048104;28;20041;-66
2021/12/30 09:01:35;;;;;;;0.40;0.40;;;;;;;6.59;96.30;96857.28;5036943;28;20060;-64
2021/12/30 09:04:04;;;;;;;0.30;0.30;;;;;;;6.67;93.11;96859.09;5033711;28;20524;-66
2021/12/30 09:06:30;;;;;;;0.35;0.35;;;;;;;6.54;94.95;96868.56;5029247;28;20068;-67
2021/12/30 09:08:57;;;;;;;0.30;0.30;;;;;;;6.30;97.68;96865.88;5058965;28;20053;-64
2021/12/30 09:11:25;;;;;;;0.50;0.50;;;;;;;6.18;97.84;96819.13;5053307;28;20061;-63
2021/12/30 09:13:52;;;;;;;0.40;0.40;;;;;;;6.76;97.61;96873.53;5051469;28;20052;-66
2021/12/30 09:16:19;;;;;;;0.40;0.40;;;;;;;6.84;91.09;96872.59;5032429;28;20052;-63
2021/12/30 09:18:46;;;;;;;3.63;1.48;;;;;;;4.81;91.64;96577.84;5027083;28;20052;-65
2021/12/30 09:21:12;;;;;;;0.40;0.40;;;;;;;6.84;93.72;96869.84;5033724;28;20048;-65
2021/12/30 09:23:39;;;;;;;0.40;0.40;;;;;;;6.92;94.21;96882.66;5048997;28;20429;-67
2021/12/30 09:26:06;;;;;;;0.40;0.40;;;;;;;6.64;94.79;96826.78;5051866;28;20060;-65
2021/12/30 09:28:33;;;;;;;0.40;0.40;;;;;;;6.22;94.90;96767.78;5051009;28;20084;-66
2021/12/30 09:31:00;;;;;;;0.40;0.40;;;;;;;6.31;93.50;96812.44;5055897;28;20139;-64
2021/12/30 09:33:27;;;;;;;0.77;0.77;;;;;;;6.70;95.21;96907.94;5053572;28;20427;-68
2021/12/30 09:35:53;;;;;;;2.75;2.58;;;;;;;6.61;95.02;96888.03;5052697;28;20162;-64
2021/12/30 09:38:20;;;;;;;0.52;0.52;;;;;;;6.68;95.82;96893.75;5047757;28;20059;-66
2021/12/30 09:40:47;;;;;;;1.25;1.15;;;;;;;6.30;97.49;96849.38;5049428;28;20443;-67
2021/12/30 09:43:16;;;;;;;0.40;0.40;;;;;;;6.81;96.71;96892.53;5037759;28;20497;-66
2021/12/30 09:45:42;;;;;;;0.30;0.30;;;;;;;6.89;95.98;96899.84;5050702;28;20049;-66
2021/12/30 09:48:13;;;;;;;0.32;0.32;;;;;;;6.63;97.49;96896.72;5040596;28;20531;-71
2021/12/30 09:50:46;;;;;;;0.40;0.40;;;;;;;5.10;97.12;96668.97;5055713;28;20051;-78
2021/12/30 09:53:17;;;;;;;0.38;0.38;;;;;;;6.73;97.69;96895.44;5053722;28;20056;-72
2021/12/30 09:55:43;;;;;;;0.30;0.30;;;;;;;6.67;98.16;96859.09;5048285;28;20489;-73
2021/12/30 09:58:10;;;;;;;2.10;2.00;;;;;;;6.99;97.37;96899.34;5045108;28;20053;-67
2021/12/30 10:00:38;;;;;;;0.40;0.40;;;;;;;7.13;96.42;96894.25;5043521;28;20060;-74
2021/12/30 10:03:06;;;;;;;1.33;1.33;;;;;;;6.74;92.95;96825.47;5042195;28;20211;-68
2021/12/30 10:05:39;;;;;;;4.35;1.98;;;;;;;7.02;94.37;96892.34;5049979;28;20106;-71
2021/12/30 10:08:08;;;;;;;0.68;0.68;;;;;;;6.67;96.23;96852.81;5052628;28;20052;-65
2021/12/30 10:10:39;;;;;;;0.77;0.77;;;;;;;5.85;95.68;96727.81;5042431;28;20060;-65
2021/12/30 10:13:24;;;;;;;0.82;0.82;;;;;;;6.98;97.17;96902.47;5049580;28;20147;-62
2021/12/30 10:16:10;;;;;;;0.45;0.45;;;;;;;6.91;96.29;96875.53;5056541;28;20060;-67
2021/12/30 10:19:00;;;;;;;0.40;0.40;;;;;;;7.06;99.44;96899.56;5032468;28;20055;-69
2021/12/30 10:21:30;;;;;;;0.30;0.30;;;;;;;7.14;98.41;96901.38;5046708;28;20055;-67
2021/12/30 10:24:00;;;;;;;1.00;0.95;;;;;;;7.01;97.94;96899.81;5055152;28;20049;-68
2021/12/30 10:26:27;;;;;;;0.82;0.82;;;;;;;7.05;99.08;96906.19;5053155;28;20117;-66
2021/12/30 10:29:02;;;;;;;0.38;0.38;;;;;;;6.89;98.38;96899.84;5030564;28;20065;-68
2021/12/30 10:31:32;;;;;;;0.52;0.52;;;;;;;6.92;97.74;96909.38;5049420;28;20515;-68
2021/12/30 10:34:04;;;;;;;0.60;0.60;;;;;;;6.95;98.23;96922.44;5059536;28;20458;-71
2021/12/30 10:36:36;;;;;;;0.40;0.40;;;;;;;6.95;98.64;96906.72;5057745;28;20140;-71
2021/12/30 10:39:29;;;;;;;0.40;0.40;;;;;;;6.96;99.32;96904.75;5048303;28;20544;-66
2021/12/30 10:42:09;;;;;;;1.67;1.25;;;;;;;6.93;99.35;96917.28;5043456;28;20146;-68
2021/12/30 10:44:59;;;;;;;0.93;0.93;;;;;;;6.99;99.57;96926.88;5053687;28;20060;-66
2021/12/30 10:47:29;;;;;;;0.40;0.40;;;;;;;6.97;98.86;96907.16;5048740;28;20407;-67
2021/12/30 10:50:02;;;;;;;0.70;0.70;;;;;;;7.04;97.73;96918.38;5053093;28;20730;-66
2021/12/30 10:52:30;;;;;;;1.02;1.02;;;;;;;7.05;98.14;96925.47;5053790;28;20143;-65
2021/12/30 10:54:59;;;;;;;0.40;0.40;;;;;;;7.06;99.57;96927.09;5058100;28;20064;-61
2021/12/30 10:57:30;;;;;;;0.40;0.40;;;;;;;7.01;98.31;96921.84;5056120;28;20045;-65
2021/12/30 10:59:57;;;;;;;0.50;0.50;;;;;;;6.48;96.55;96845.16;5042987;28;20049;-63
2021/12/30 11:02:26;;;;;;;0.40;0.40;;;;;;;6.54;95.55;96889.75;5048645;28;20064;-69
2021/12/30 11:04:56;;;;;;;0.40;0.40;;;;;;;6.48;92.73;96924.97;5046669;28;20048;-65
2021/12/30 11:07:46;;;;;;;0.47;0.47;;;;;;;6.79;91.19;96938.91;5041672;28;20045;-70
2021/12/30 11:10:28;;;;;;;2.00;1.88;;;;;;;6.85;93.68;96928.44;5036928;28;20053;-65
2021/12/30 11:13:07;;;;;;;1.58;1.48;;;;;;;6.87;94.45;96928.88;5055937;28;20044;-69
2021/12/30 11:15:34;;;;;;;1.65;1.60;;;;;;;5.95;93.48;96761.13;5053863;28;20135;-65
2021/12/30 11:18:10;;;;;;;0.65;0.65;;;;;;;6.83;89.89;96895.75;5056846;28;20063;-69
2021/12/30 11:20:39;;;;;;;0.40;0.40;;;;;;;5.26;92.07;96650.66;5049748;28;20048;-65
2021/12/30 11:23:06;;;;;;;0.40;0.40;;;;;;;7.28;92.42;96918.28;5032777;28;20071;-64
2021/12/30 11:25:33;;;;;;;0.68;0.68;;;;;;;7.51;91.48;96938.59;5058318;28;20135;-71
2021/12/30 11:27:59;;;;;;;0.40;0.40;;;;;;;6.45;90.78;96788.09;5051728;28;20055;-72
2021/12/30 11:30:33;;;;;;;0.62;0.62;;;;;;;7.35;92.83;96940.50;4525356;28;10002025;-70
2021/12/30 11:33:01;;;;;;;0.43;0.43;;;;;;;7.17;93.68;96916.38;2889035;28;10001987;-69
2021/12/30 11:35:27;;;;;;;0.40;0.40;;;;;;;5.92;94.23;96799.50;5043595;28;20051;-65
2021/12/30 11:37:55;;;;;;;2.22;2.05;;;;;;;6.69;94.60;96873.31;5046350;28;20061;-69
2021/12/30 11:40:25;;;;;;;0.65;0.65;;;;;;;6.38;96.33;96873.19;5031384;28;20063;-70
2021/12/30 11:43:09;;;;;;;0.40;0.40;;;;;;;6.27;95.96;96806.06;5046577;28;20056;-67
2021/12/30 11:45:41;;;;;;;0.30;0.30;;;;;;;5.99;97.39;96806.00;5059696;28;20062;-69